Etusivu
METAR-TAF:

METAR-TAF

Lentoasemat :

Sapporo, Japani

Leveyspiiri: 43-07N, Pituuspiiri: 141-23E, korkeus merenpinnasta: 8 m

Tämänhetkinen sää

Tämä raportti tehtiin 27 minuuttia sitten, kello 21.00 UTC
Tuuli 7 kn kaakosta
Lämpötila 18°C
Kosteus 100%
Ilmanpaine 1012 hPa
Näkyvyys 10 km tai enemmän
Muutamia pilviä 500 ft:n korkeudessa
Hajanaisia pilviä 800 ft:n korkeudessa
Hajonneita pilviä 1500 ft:n korkeudessa

METAR: RJCO 202100Z 13007KT 9999 FEW005 SCT008 BKN015 18/18 Q1012

Aika: 06:27 (21:27 UTC)


TAF: puuttuu

Säähavainnot ja -ennusteet yli 4000 lentoasemalta (METAR- ja TAF-raportit).

Käytössä olevat sääasemat on merkitty karttaan keltaisilla ja punaisilla pisteillä.

Aseta hiiri pisteen päälle nähdäksesi sääaseman nimen.

Klikkaa sitten nähdäksesi säähavainnot ja -ennusteet.

Kartan vaihtaminen: klikkaa mustalla rastilla varustettuja vihreitä pisteitä, niin voit zoomata sisään; viivalla varustettua vihreää pistettä, niin voit zoomata ulos tai vihreitä nuolia, niin pääset viereisille kartoille.


METAR-TAF: